createdAt,value
2016-12-10T00:00:50.783Z,0
2016-12-10T00:01:50.115Z,0
2016-12-10T00:02:50.119Z,0
2016-12-10T00:03:50.764Z,0
2016-12-10T00:04:50.580Z,0
2016-12-10T00:05:50.100Z,0
2016-12-10T00:06:50.752Z,0
2016-12-10T00:07:50.088Z,12
2016-12-10T00:08:50.748Z,12
2016-12-10T00:09:50.736Z,12
2016-12-10T00:10:50.404Z,0
2016-12-10T00:11:50.397Z,0
2016-12-10T00:12:50.405Z,0
2016-12-10T00:13:50.065Z,0
2016-12-10T00:14:50.382Z,0
2016-12-10T00:15:50.384Z,0
2016-12-10T00:16:50.054Z,0
2016-12-10T00:17:50.703Z,0
2016-12-10T00:18:50.375Z,0
2016-12-10T00:19:50.371Z,0
2016-12-10T00:20:50.367Z,0
2016-12-10T00:21:49.708Z,0
2016-12-10T00:22:50.680Z,0
2016-12-10T00:23:50.344Z,0
2016-12-10T00:24:50.349Z,0
2016-12-10T00:25:50.673Z,0
2016-12-10T00:26:50.345Z,0
2016-12-10T00:27:49.669Z,0
2016-12-10T00:28:50.653Z,0
2016-12-10T00:29:50.322Z,0
2016-12-10T00:30:50.645Z,0
2016-12-10T00:31:50.646Z,0
2016-12-10T00:32:50.311Z,0
2016-12-10T00:33:50.311Z,0
2016-12-10T00:34:50.295Z,0
2016-12-10T00:35:50.303Z,0
2016-12-10T00:36:49.959Z,0
2016-12-10T00:37:49.965Z,0
2016-12-10T00:38:50.284Z,0
2016-12-10T00:39:50.284Z,0
2016-12-10T00:40:50.284Z,0
2016-12-10T00:41:50.275Z,0
2016-12-10T00:42:50.273Z,0
2016-12-10T00:43:50.260Z,0
2016-12-10T00:44:50.253Z,0
2016-12-10T00:45:50.285Z,0
2016-12-10T00:46:50.581Z,0
2016-12-10T00:47:50.254Z,12
2016-12-10T00:48:50.250Z,12
2016-12-10T00:49:50.235Z,12
2016-12-10T00:50:49.919Z,12
2016-12-10T00:51:49.896Z,12
2016-12-10T00:52:50.559Z,12
2016-12-10T00:53:50.220Z,12
2016-12-10T00:54:49.884Z,12
2016-12-10T00:55:50.209Z,12
2016-12-10T00:56:50.209Z,12
2016-12-10T00:57:50.205Z,0
2016-12-10T00:58:50.206Z,0
2016-12-10T00:59:49.546Z,0
2016-12-10T01:00:50.519Z,0
2016-12-10T01:01:50.519Z,0
2016-12-10T01:02:50.179Z,0
2016-12-10T01:03:50.179Z,0
2016-12-10T01:04:50.175Z,0
2016-12-10T01:05:50.172Z,0
2016-12-10T01:06:50.500Z,0
2016-12-10T01:07:49.836Z,0
2016-12-10T01:08:49.825Z,0
2016-12-10T01:09:50.149Z,0
2016-12-10T01:10:49.821Z,0
2016-12-10T01:11:50.150Z,0
2016-12-10T01:12:50.142Z,0
2016-12-10T01:13:50.138Z,0
2016-12-10T01:14:49.810Z,0
2016-12-10T01:15:50.455Z,0
2016-12-10T01:16:50.447Z,0
2016-12-10T01:17:50.443Z,0
2016-12-10T01:18:50.111Z,0
2016-12-10T01:19:49.807Z,0
2016-12-10T01:20:49.784Z,0
2016-12-10T01:21:49.776Z,0
2016-12-10T01:22:50.429Z,0
2016-12-10T01:23:50.096Z,0
2016-12-10T01:24:50.089Z,0
2016-12-10T01:25:50.086Z,0
2016-12-10T01:26:50.401Z,0
2016-12-10T01:27:49.737Z,0
2016-12-10T01:28:50.069Z,0
2016-12-10T01:29:49.742Z,0
2016-12-10T01:30:49.734Z,0
2016-12-10T01:31:50.058Z,0
2016-12-10T01:32:50.050Z,0
2016-12-10T01:33:50.043Z,0
2016-12-10T01:34:50.047Z,0
2016-12-10T01:35:50.367Z,0
2016-12-10T01:36:49.374Z,0
2016-12-10T01:37:49.703Z,0
2016-12-10T01:38:50.031Z,0
2016-12-10T01:39:50.015Z,0
2016-12-10T01:40:49.687Z,0
2016-12-10T01:41:50.008Z,0
2016-12-10T01:42:49.688Z,0
2016-12-10T01:43:50.324Z,0
2016-12-10T01:44:49.992Z,0
2016-12-10T01:45:49.984Z,0
2016-12-10T01:46:50.000Z,0
2016-12-10T01:47:49.984Z,0
2016-12-10T01:48:49.977Z,0
2016-12-10T01:49:49.981Z,0
2016-12-10T01:50:49.973Z,0
2016-12-10T01:51:49.994Z,0
2016-12-10T01:52:49.965Z,0
2016-12-10T01:53:50.289Z,0
2016-12-10T01:54:50.289Z,0
2016-12-10T01:55:49.950Z,0
2016-12-10T01:56:49.286Z,0
2016-12-10T01:57:50.266Z,0
2016-12-10T01:58:50.262Z,0
2016-12-10T01:59:49.930Z,0
2016-12-10T02:00:50.554Z,0
2016-12-10T02:01:49.918Z,0
2016-12-10T02:02:50.254Z,0
2016-12-10T02:03:49.911Z,0
2016-12-10T02:04:49.911Z,0
2016-12-10T02:05:49.907Z,0
2016-12-10T02:06:50.231Z,0
2016-12-10T02:07:49.903Z,0
2016-12-10T02:08:49.883Z,0
2016-12-10T02:09:49.887Z,0
2016-12-10T02:10:50.215Z,0
2016-12-10T02:11:49.884Z,0
2016-12-10T02:12:50.232Z,0
2016-12-10T02:13:49.876Z,0
2016-12-10T02:14:49.544Z,0
2016-12-10T02:15:50.192Z,0
2016-12-10T02:16:49.564Z,0
2016-12-10T02:17:49.520Z,0
2016-12-10T02:18:49.858Z,0
2016-12-10T02:19:49.884Z,0
2016-12-10T02:20:49.513Z,0
2016-12-10T02:21:49.849Z,0
2016-12-10T02:22:49.841Z,0
2016-12-10T02:23:49.181Z,0
2016-12-10T02:24:49.821Z,0
2016-12-10T02:25:50.149Z,0
2016-12-10T02:26:50.138Z,0
2016-12-10T02:27:49.806Z,0
2016-12-10T02:28:49.806Z,0
2016-12-10T02:29:49.478Z,0
2016-12-10T02:30:49.802Z,0
2016-12-10T02:31:49.470Z,0
2016-12-10T02:32:49.794Z,0
2016-12-10T02:33:49.782Z,0
2016-12-10T02:34:49.786Z,0
2016-12-10T02:35:50.098Z,0
2016-12-10T02:36:49.438Z,0
2016-12-10T02:37:49.442Z,0
2016-12-10T02:38:49.759Z,0
2016-12-10T02:39:50.098Z,0
2016-12-10T02:40:49.763Z,0
2016-12-10T02:41:50.075Z,0
2016-12-10T02:42:50.079Z,0
2016-12-10T02:43:49.743Z,0
2016-12-10T02:44:49.079Z,0
2016-12-10T02:45:50.054Z,0
2016-12-10T02:46:49.410Z,0
2016-12-10T02:47:49.759Z,0
2016-12-10T02:48:49.391Z,0
2016-12-10T02:49:50.067Z,0
2016-12-10T02:50:50.039Z,0
2016-12-10T02:51:49.710Z,0
2016-12-10T02:52:49.379Z,0
2016-12-10T02:53:49.695Z,0
2016-12-10T02:54:50.019Z,0
2016-12-10T02:55:50.015Z,0
2016-12-10T02:56:49.679Z,0
2016-12-10T02:57:50.011Z,0
2016-12-10T02:58:50.003Z,0
2016-12-10T02:59:49.675Z,0
2016-12-10T03:00:50.003Z,0
2016-12-10T03:01:49.339Z,0
2016-12-10T03:02:49.331Z,0
2016-12-10T03:03:49.323Z,0
2016-12-10T03:04:49.987Z,0
2016-12-10T03:05:49.647Z,0
2016-12-10T03:06:48.991Z,0
2016-12-10T03:07:49.967Z,0
2016-12-10T03:08:49.643Z,0
2016-12-10T03:09:49.987Z,0
2016-12-10T03:10:49.951Z,0
2016-12-10T03:11:49.291Z,0
2016-12-10T03:12:49.619Z,0
2016-12-10T03:13:48.967Z,0
2016-12-10T03:14:49.931Z,0
2016-12-10T03:15:49.599Z,0
2016-12-10T03:16:49.275Z,0
2016-12-10T03:17:49.591Z,0
2016-12-10T03:18:49.591Z,0
2016-12-10T03:19:49.591Z,0
2016-12-10T03:20:49.903Z,0
2016-12-10T03:21:49.579Z,0
2016-12-10T03:22:49.247Z,0
2016-12-10T03:23:49.239Z,0
2016-12-10T03:24:49.239Z,0
2016-12-10T03:25:49.227Z,0
2016-12-10T03:26:49.887Z,0
2016-12-10T03:27:49.548Z,0
2016-12-10T03:28:49.539Z,0
2016-12-10T03:29:49.539Z,0
2016-12-10T03:30:49.875Z,0
2016-12-10T03:31:49.535Z,0
2016-12-10T03:32:49.227Z,0
2016-12-10T03:33:49.523Z,0
2016-12-10T03:34:49.199Z,0
2016-12-10T03:35:49.188Z,0
2016-12-10T03:36:49.847Z,0
2016-12-10T03:37:49.843Z,0
2016-12-10T03:38:49.504Z,0
2016-12-10T03:39:49.511Z,0
2016-12-10T03:40:49.175Z,0
2016-12-10T03:41:49.487Z,0
2016-12-10T03:42:49.808Z,0
2016-12-10T03:43:49.475Z,0
2016-12-10T03:44:49.151Z,0
2016-12-10T03:45:49.479Z,0
2016-12-10T03:46:49.139Z,0
2016-12-10T03:47:49.166Z,0
2016-12-10T03:48:49.463Z,0
2016-12-10T03:49:49.148Z,0
2016-12-10T03:50:49.450Z,0
2016-12-10T03:51:49.446Z,0
2016-12-10T03:52:49.114Z,0
2016-12-10T03:53:49.766Z,0
2016-12-10T03:54:49.433Z,0
2016-12-10T03:55:49.754Z,0
2016-12-10T03:56:49.749Z,0
2016-12-10T03:57:49.745Z,0
2016-12-10T03:58:49.749Z,0
2016-12-10T03:59:49.741Z,0
2016-12-10T04:00:49.733Z,0
2016-12-10T04:01:49.396Z,0
2016-12-10T04:02:49.733Z,0
2016-12-10T04:03:49.061Z,0
2016-12-10T04:04:49.061Z,0
2016-12-10T04:05:48.728Z,0
2016-12-10T04:06:49.044Z,0
2016-12-10T04:07:49.368Z,0
2016-12-10T04:08:49.044Z,0
2016-12-10T04:09:49.692Z,0
2016-12-10T04:10:49.720Z,0
2016-12-10T04:11:49.360Z,0
2016-12-10T04:12:49.680Z,0
2016-12-10T04:13:49.676Z,0
2016-12-10T04:14:49.031Z,0
2016-12-10T04:15:49.671Z,0
2016-12-10T04:16:49.663Z,0
2016-12-10T04:17:49.352Z,0
2016-12-10T04:18:49.655Z,0
2016-12-10T04:19:49.319Z,0
2016-12-10T04:20:49.327Z,0
2016-12-10T04:21:49.652Z,0
2016-12-10T04:22:49.315Z,0
2016-12-10T04:23:49.303Z,0
2016-12-10T04:24:49.623Z,0
2016-12-10T04:25:48.967Z,0
2016-12-10T04:26:49.295Z,0
2016-12-10T04:27:49.287Z,0
2016-12-10T04:28:49.276Z,0
2016-12-10T04:29:48.631Z,0
2016-12-10T04:30:49.271Z,0
2016-12-10T04:31:49.263Z,0
2016-12-10T04:32:48.935Z,0
2016-12-10T04:33:49.259Z,0
2016-12-10T04:34:49.263Z,0
2016-12-10T04:35:48.931Z,0
2016-12-10T04:36:49.251Z,0
2016-12-10T04:37:48.923Z,0
2016-12-10T04:38:49.591Z,0
2016-12-10T04:39:49.567Z,0
2016-12-10T04:40:49.227Z,0
2016-12-10T04:41:48.911Z,0
2016-12-10T04:42:49.224Z,0
2016-12-10T04:43:49.539Z,0
2016-12-10T04:44:48.891Z,0
2016-12-10T04:45:49.211Z,0
2016-12-10T04:46:49.531Z,0
2016-12-10T04:47:49.527Z,0
2016-12-10T04:48:49.532Z,0
2016-12-10T04:49:49.223Z,0
2016-12-10T04:50:49.519Z,0
2016-12-10T04:51:49.191Z,0
2016-12-10T04:52:49.177Z,0
2016-12-10T04:53:49.179Z,0
2016-12-10T04:54:49.503Z,0
2016-12-10T04:55:48.848Z,0
2016-12-10T04:56:48.851Z,0
2016-12-10T04:57:49.484Z,0
2016-12-10T04:58:49.155Z,0
2016-12-10T04:59:49.148Z,0
2016-12-10T05:00:49.143Z,0
2016-12-10T05:01:49.140Z,0
2016-12-10T05:02:49.471Z,0
2016-12-10T05:03:49.457Z,0
2016-12-10T05:04:49.136Z,0
2016-12-10T05:05:49.464Z,0
2016-12-10T05:06:48.795Z,0
2016-12-10T05:07:49.120Z,0
2016-12-10T05:08:49.116Z,0
2016-12-10T05:09:49.432Z,0
2016-12-10T05:10:49.108Z,0
2016-12-10T05:11:49.688Z,0
2016-12-10T05:12:48.760Z,0
2016-12-10T05:13:48.764Z,0
2016-12-10T05:14:49.088Z,0
2016-12-10T05:15:48.752Z,0
2016-12-10T05:16:49.084Z,0
2016-12-10T05:17:48.744Z,0
2016-12-10T05:18:48.744Z,0
2016-12-10T05:19:49.388Z,0
2016-12-10T05:20:49.396Z,0
2016-12-10T05:21:49.064Z,0
2016-12-10T05:22:49.060Z,0
2016-12-10T05:23:49.048Z,0
2016-12-10T05:24:49.048Z,0
2016-12-10T05:25:49.368Z,0
2016-12-10T05:26:49.032Z,0
2016-12-10T05:27:48.716Z,0
2016-12-10T05:28:49.021Z,0
2016-12-10T05:29:48.700Z,0
2016-12-10T05:30:49.020Z,0
2016-12-10T05:31:49.341Z,0
2016-12-10T05:32:49.016Z,0
2016-12-10T05:33:49.325Z,0
2016-12-10T05:34:49.333Z,0
2016-12-10T05:35:49.000Z,0
2016-12-10T05:36:49.329Z,0
2016-12-10T05:37:48.988Z,0
2016-12-10T05:38:48.992Z,0
2016-12-10T05:39:48.989Z,0
2016-12-10T05:40:48.990Z,0
2016-12-10T05:41:49.301Z,0
2016-12-10T05:42:48.998Z,0
2016-12-10T05:43:48.965Z,0
2016-12-10T05:44:48.956Z,0
2016-12-10T05:45:48.957Z,0
2016-12-10T05:46:48.948Z,0
2016-12-10T05:47:48.626Z,0
2016-12-10T05:48:49.269Z,0
2016-12-10T05:49:48.941Z,0
2016-12-10T05:50:48.937Z,0
2016-12-10T05:51:49.270Z,0
2016-12-10T05:52:48.921Z,0
2016-12-10T05:53:48.589Z,0
2016-12-10T05:54:48.917Z,0
2016-12-10T05:55:48.917Z,0
2016-12-10T05:56:48.577Z,0
2016-12-10T05:57:48.593Z,0
2016-12-10T05:58:48.577Z,0
2016-12-10T05:59:48.569Z,0
2016-12-10T06:00:49.217Z,0
2016-12-10T06:01:48.557Z,0
2016-12-10T06:02:48.557Z,0
2016-12-10T06:03:48.549Z,0
2016-12-10T06:04:48.880Z,0
2016-12-10T06:05:48.868Z,0
2016-12-10T06:06:49.217Z,0
2016-12-10T06:07:48.536Z,0
2016-12-10T06:08:48.556Z,0
2016-12-10T06:09:48.528Z,0
2016-12-10T06:10:48.196Z,0
2016-12-10T06:11:48.508Z,0
2016-12-10T06:12:48.836Z,0
2016-12-10T06:13:48.833Z,0
2016-12-10T06:14:48.839Z,0
2016-12-10T06:15:49.157Z,0
2016-12-10T06:16:48.827Z,0
2016-12-10T06:17:48.823Z,0
2016-12-10T06:18:48.487Z,0
2016-12-10T06:19:49.135Z,0
2016-12-10T06:20:48.806Z,0
2016-12-10T06:21:49.118Z,0
2016-12-10T06:22:48.794Z,0
2016-12-10T06:23:49.115Z,0
2016-12-10T06:24:48.783Z,0
2016-12-10T06:25:48.786Z,0
2016-12-10T06:26:49.106Z,0
2016-12-10T06:27:48.446Z,0
2016-12-10T06:28:49.098Z,0
2016-12-10T06:29:48.438Z,0
2016-12-10T06:30:49.086Z,0
2016-12-10T06:31:48.758Z,0
2016-12-10T06:32:49.079Z,0
2016-12-10T06:33:48.747Z,0
2016-12-10T06:34:49.075Z,4
2016-12-10T06:35:48.742Z,4
2016-12-10T06:36:48.730Z,0
2016-12-10T06:37:49.062Z,4
2016-12-10T06:38:48.722Z,4
2016-12-10T06:39:48.722Z,4
2016-12-10T06:40:49.042Z,4
2016-12-10T06:41:49.046Z,4
2016-12-10T06:42:48.714Z,8
2016-12-10T06:43:49.038Z,8
2016-12-10T06:44:48.706Z,8
2016-12-10T06:45:48.694Z,8
2016-12-10T06:46:49.022Z,12
2016-12-10T06:47:48.686Z,16
2016-12-10T06:48:48.682Z,16
2016-12-10T06:49:48.674Z,20
2016-12-10T06:50:48.674Z,20
2016-12-10T06:51:48.678Z,20
2016-12-10T06:52:48.662Z,24
2016-12-10T06:53:48.658Z,28
2016-12-10T06:54:48.662Z,32
2016-12-10T06:55:48.982Z,36
2016-12-10T06:56:48.974Z,40
2016-12-10T06:57:48.650Z,44
2016-12-10T06:58:48.970Z,44
2016-12-10T06:59:48.309Z,52
2016-12-10T07:00:48.966Z,52
2016-12-10T07:01:48.626Z,56
2016-12-10T07:02:49.198Z,60
2016-12-10T07:03:48.290Z,68
2016-12-10T07:04:48.615Z,76
2016-12-10T07:05:48.618Z,84
2016-12-10T07:06:48.603Z,88
2016-12-10T07:07:48.934Z,96
2016-12-10T07:08:48.922Z,104
2016-12-10T07:09:48.915Z,112
2016-12-10T07:10:48.590Z,124
2016-12-10T07:11:48.914Z,128
2016-12-10T07:12:48.587Z,136
2016-12-10T07:13:48.579Z,144
2016-12-10T07:14:48.915Z,156
2016-12-10T07:15:48.567Z,164
2016-12-10T07:16:48.571Z,172
2016-12-10T07:17:48.895Z,176
2016-12-10T07:18:48.879Z,184
2016-12-10T07:19:48.559Z,196
2016-12-10T07:20:48.556Z,200
2016-12-10T07:21:48.223Z,204
2016-12-10T07:22:48.871Z,212
2016-12-10T07:23:48.223Z,224
2016-12-10T07:24:48.859Z,228
2016-12-10T07:25:48.535Z,240
2016-12-10T07:26:48.515Z,256
2016-12-10T07:27:48.219Z,272
2016-12-10T07:28:48.507Z,280
2016-12-10T07:29:48.188Z,284
2016-12-10T07:30:48.510Z,292
2016-12-10T07:31:48.503Z,308
2016-12-10T07:32:48.824Z,316
2016-12-10T07:33:48.496Z,316
2016-12-10T07:34:48.488Z,304
2016-12-10T07:35:48.848Z,304
2016-12-10T07:36:48.492Z,316
2016-12-10T07:37:48.151Z,328
2016-12-10T07:38:48.144Z,336
2016-12-10T07:39:48.464Z,332
2016-12-10T07:40:48.136Z,332
2016-12-10T07:41:48.464Z,340
2016-12-10T07:42:48.788Z,356
2016-12-10T07:43:48.780Z,368
2016-12-10T07:44:48.448Z,384
2016-12-10T07:45:48.439Z,404
2016-12-10T07:46:48.760Z,424
2016-12-10T07:47:48.737Z,440
2016-12-10T07:48:48.428Z,448
2016-12-10T07:49:48.405Z,472
2016-12-10T07:50:48.714Z,472
2016-12-10T07:51:48.713Z,484
2016-12-10T07:52:48.392Z,500
2016-12-10T07:53:48.700Z,524
2016-12-10T07:54:48.697Z,524
2016-12-10T07:55:48.692Z,524
2016-12-10T07:56:48.693Z,508
2016-12-10T07:57:48.680Z,500
2016-12-10T07:58:48.676Z,500
2016-12-10T07:59:48.680Z,500
2016-12-10T08:00:48.668Z,512
2016-12-10T08:01:48.668Z,524
2016-12-10T08:02:48.664Z,536
2016-12-10T08:03:48.656Z,560
2016-12-10T08:04:48.651Z,576
2016-12-10T08:05:48.651Z,584
2016-12-10T08:06:48.643Z,584
2016-12-10T08:07:48.643Z,588
2016-12-10T08:08:48.636Z,588
2016-12-10T08:09:48.312Z,604
2016-12-10T08:10:47.991Z,632
2016-12-10T08:11:48.656Z,664
2016-12-10T08:12:48.547Z,692
2016-12-10T08:13:48.303Z,688
2016-12-10T08:14:48.612Z,688
2016-12-10T08:15:48.612Z,672
2016-12-10T08:16:48.284Z,684
2016-12-10T08:17:48.608Z,684
2016-12-10T08:18:48.596Z,696
2016-12-10T08:19:48.592Z,716
2016-12-10T08:20:47.952Z,736
2016-12-10T08:21:48.584Z,780
2016-12-10T08:22:48.588Z,828
2016-12-10T08:23:48.576Z,864
2016-12-10T08:24:48.576Z,840
2016-12-10T08:25:48.248Z,832
2016-12-10T08:26:48.564Z,848
2016-12-10T08:27:48.244Z,836
2016-12-10T08:28:48.561Z,804
2016-12-10T08:29:48.564Z,804
2016-12-10T08:30:48.548Z,880
2016-12-10T08:31:47.904Z,888
2016-12-10T08:32:48.216Z,860
2016-12-10T08:33:48.212Z,860
2016-12-10T08:34:48.528Z,860
2016-12-10T08:35:48.529Z,896
2016-12-10T08:36:47.884Z,932
2016-12-10T08:37:48.200Z,972
2016-12-10T08:38:48.513Z,984
2016-12-10T08:39:48.552Z,980
2016-12-10T08:40:48.509Z,1000
2016-12-10T08:41:48.216Z,1028
2016-12-10T08:42:47.880Z,1088
2016-12-10T08:43:48.196Z,1120
2016-12-10T08:44:48.192Z,1132
2016-12-10T08:45:48.523Z,1132
2016-12-10T08:46:47.872Z,1112
2016-12-10T08:47:48.516Z,1092
2016-12-10T08:48:48.180Z,1036
2016-12-10T08:49:48.511Z,1040
2016-12-10T08:50:47.512Z,1076
2016-12-10T08:51:48.496Z,1080
2016-12-10T08:52:48.171Z,1072
2016-12-10T08:53:47.832Z,1096
2016-12-10T08:54:48.187Z,1100
2016-12-10T08:55:47.825Z,1112
2016-12-10T08:56:47.531Z,1128
2016-12-10T08:57:48.484Z,1128
2016-12-10T08:58:48.472Z,1128
2016-12-10T08:59:48.140Z,1160
2016-12-10T09:00:48.135Z,1176
2016-12-10T09:01:48.139Z,1172
2016-12-10T09:02:48.123Z,1172
2016-12-10T09:03:48.131Z,1164
2016-12-10T09:04:48.115Z,1168
2016-12-10T09:05:48.123Z,1224
2016-12-10T09:06:48.111Z,1248
2016-12-10T09:07:48.107Z,1268
2016-12-10T09:08:48.107Z,1284
2016-12-10T09:09:48.099Z,1260
2016-12-10T09:10:48.423Z,1252
2016-12-10T09:11:48.099Z,1240
2016-12-10T09:12:47.767Z,1216
2016-12-10T09:13:47.759Z,1216
2016-12-10T09:14:48.075Z,1204
2016-12-10T09:15:47.754Z,1200
2016-12-10T09:16:48.402Z,1192
2016-12-10T09:17:48.394Z,1180
2016-12-10T09:18:48.071Z,1200
2016-12-10T09:19:48.415Z,1240
2016-12-10T09:20:47.730Z,1276
2016-12-10T09:21:48.058Z,1276
2016-12-10T09:22:48.043Z,1300
2016-12-10T09:23:48.371Z,1344
2016-12-10T09:24:48.038Z,1352
2016-12-10T09:25:48.038Z,1368
2016-12-10T09:26:47.718Z,1396
2016-12-10T09:27:48.034Z,1460
2016-12-10T09:28:48.354Z,1496
2016-12-10T09:29:48.346Z,1516
2016-12-10T09:30:47.687Z,1528
2016-12-10T09:31:48.018Z,1544
2016-12-10T09:32:48.042Z,1608
2016-12-10T09:33:48.354Z,1700
2016-12-10T09:34:48.002Z,1716
2016-12-10T09:35:47.670Z,1692
2016-12-10T09:36:47.990Z,1640
2016-12-10T09:37:48.318Z,1576
2016-12-10T09:38:48.314Z,1564
2016-12-10T09:39:48.002Z,1604
2016-12-10T09:40:47.978Z,1596
2016-12-10T09:41:47.974Z,1584
2016-12-10T09:42:47.641Z,1628
2016-12-10T09:43:47.666Z,1716
2016-12-10T09:44:47.644Z,1772
2016-12-10T09:45:47.950Z,1780
2016-12-10T09:46:47.954Z,1800
2016-12-10T09:47:47.954Z,1864
2016-12-10T09:48:48.282Z,1908
2016-12-10T09:49:47.627Z,1952
2016-12-10T09:50:47.942Z,1924
2016-12-10T09:51:47.942Z,1908
2016-12-10T09:52:47.938Z,1948
2016-12-10T09:53:47.938Z,1976
2016-12-10T09:54:47.930Z,2016
2016-12-10T09:55:47.932Z,2004
2016-12-10T09:56:47.922Z,1960
2016-12-10T09:57:47.583Z,1920
2016-12-10T09:58:47.915Z,1932
2016-12-10T09:59:48.239Z,1908
2016-12-10T10:00:47.607Z,1996
2016-12-10T10:01:47.912Z,2100
2016-12-10T10:02:48.376Z,2272
2016-12-10T10:03:47.895Z,2312
2016-12-10T10:04:47.896Z,2244
2016-12-10T10:05:47.572Z,2144
2016-12-10T10:06:48.216Z,2104
2016-12-10T10:07:47.880Z,2152
2016-12-10T10:08:47.888Z,2216
2016-12-10T10:09:47.889Z,2232
2016-12-10T10:10:48.208Z,2336
2016-12-10T10:11:48.196Z,2456
2016-12-10T10:12:48.192Z,2616
2016-12-10T10:13:48.185Z,2556
2016-12-10T10:14:48.193Z,2468
2016-12-10T10:15:48.185Z,2436
2016-12-10T10:16:47.197Z,2216
2016-12-10T10:17:47.525Z,2132
2016-12-10T10:18:48.177Z,2228
2016-12-10T10:19:48.170Z,2500
2016-12-10T10:20:48.197Z,2580
2016-12-10T10:21:47.850Z,2492
2016-12-10T10:22:47.833Z,2300
2016-12-10T10:23:48.154Z,2136
2016-12-10T10:24:47.498Z,2088
2016-12-10T10:25:47.534Z,2152
2016-12-10T10:26:47.190Z,2188
2016-12-10T10:27:47.486Z,2192
2016-12-10T10:28:48.139Z,2284
2016-12-10T10:29:47.814Z,2472
2016-12-10T10:30:47.819Z,2508
2016-12-10T10:31:47.799Z,2560
2016-12-10T10:32:47.474Z,2628
2016-12-10T10:33:47.819Z,2616
2016-12-10T10:34:47.787Z,2580
2016-12-10T10:35:47.463Z,2732
2016-12-10T10:36:47.479Z,2844
2016-12-10T10:37:47.655Z,2892
2016-12-10T10:38:47.459Z,2932
2016-12-10T10:39:47.447Z,3000
2016-12-10T10:40:47.451Z,2920
2016-12-10T10:41:47.779Z,2752
2016-12-10T10:42:47.779Z,2488
2016-12-10T10:43:47.767Z,2388
2016-12-10T10:44:47.764Z,2436
2016-12-10T10:45:47.428Z,2740
2016-12-10T10:46:47.763Z,2624
2016-12-10T10:47:48.083Z,2436
2016-12-10T10:48:48.083Z,2380
2016-12-10T10:49:47.755Z,2280
2016-12-10T10:50:47.743Z,2152
2016-12-10T10:51:47.744Z,2172
2016-12-10T10:52:48.228Z,2064
2016-12-10T10:53:47.756Z,2192
2016-12-10T10:54:47.732Z,2460
2016-12-10T10:55:47.403Z,2740
2016-12-10T10:56:48.052Z,2656
2016-12-10T10:57:47.724Z,2600
2016-12-10T10:58:47.395Z,2476
2016-12-10T10:59:47.720Z,2392
2016-12-10T11:00:47.716Z,2424
2016-12-10T11:01:47.712Z,2392
2016-12-10T11:02:47.708Z,2472
2016-12-10T11:03:48.035Z,2380
2016-12-10T11:04:47.368Z,2664
2016-12-10T11:05:48.036Z,2980
2016-12-10T11:06:47.704Z,3248
2016-12-10T11:07:48.024Z,3340
2016-12-10T11:08:47.692Z,3064
2016-12-10T11:09:48.012Z,2992
2016-12-10T11:10:48.020Z,3096
2016-12-10T11:11:47.364Z,3172
2016-12-10T11:12:47.680Z,3196
2016-12-10T11:13:48.004Z,3220
2016-12-10T11:14:48.000Z,3160
2016-12-10T11:15:47.673Z,3200
2016-12-10T11:16:47.673Z,3220
2016-12-10T11:17:47.672Z,3164
2016-12-10T11:18:47.656Z,3108
2016-12-10T11:19:47.992Z,3096
2016-12-10T11:20:47.660Z,3220
2016-12-10T11:21:47.356Z,3176
2016-12-10T11:22:47.653Z,3136
2016-12-10T11:23:47.649Z,3120
2016-12-10T11:24:47.973Z,2984
2016-12-10T11:25:47.969Z,2916
2016-12-10T11:26:47.641Z,2784
2016-12-10T11:27:47.665Z,2728
2016-12-10T11:28:47.965Z,2680
2016-12-10T11:29:47.637Z,2764
2016-12-10T11:30:47.941Z,2764
2016-12-10T11:31:47.949Z,2652
2016-12-10T11:32:47.625Z,2696
2016-12-10T11:33:47.621Z,2632
2016-12-10T11:34:47.609Z,2516
2016-12-10T11:35:47.618Z,2468
2016-12-10T11:36:47.934Z,2520
2016-12-10T11:37:46.954Z,2592
2016-12-10T11:38:47.930Z,2584
2016-12-10T11:39:47.601Z,2496
2016-12-10T11:40:47.598Z,2440
2016-12-10T11:41:47.598Z,2444
2016-12-10T11:42:47.602Z,2484
2016-12-10T11:43:47.595Z,2524
2016-12-10T11:44:47.263Z,2548
2016-12-10T11:45:47.591Z,2604
2016-12-10T11:46:47.939Z,2596
2016-12-10T11:47:47.579Z,2548
2016-12-10T11:48:47.591Z,2460
2016-12-10T11:49:47.584Z,2352
2016-12-10T11:50:47.587Z,2344
2016-12-10T11:51:47.244Z,2256
2016-12-10T11:52:47.244Z,2244
2016-12-10T11:53:47.238Z,2232
2016-12-10T11:54:47.560Z,2256
2016-12-10T11:55:47.892Z,2224
2016-12-10T11:56:47.557Z,2232
2016-12-10T11:57:47.556Z,2276
2016-12-10T11:58:47.884Z,2320
2016-12-10T11:59:47.544Z,2336
2016-12-10T12:00:47.872Z,2268
2016-12-10T12:01:47.549Z,2272
2016-12-10T12:02:47.553Z,2248
2016-12-10T12:03:47.873Z,2288
2016-12-10T12:04:47.869Z,2360
2016-12-10T12:05:47.534Z,2416
2016-12-10T12:06:47.538Z,2484
2016-12-10T12:07:46.878Z,2508
2016-12-10T12:08:47.730Z,2468
2016-12-10T12:09:46.866Z,2492
2016-12-10T12:10:47.534Z,2504
2016-12-10T12:11:47.526Z,2424
2016-12-10T12:12:47.518Z,2324
2016-12-10T12:13:47.506Z,2332
2016-12-10T12:14:47.838Z,2388
2016-12-10T12:15:47.183Z,2340
2016-12-10T12:16:47.835Z,2292
2016-12-10T12:17:47.511Z,2232
2016-12-10T12:18:47.503Z,2156
2016-12-10T12:19:47.507Z,2076
2016-12-10T12:20:47.179Z,2068
2016-12-10T12:21:47.500Z,2120
2016-12-10T12:22:47.496Z,2268
2016-12-10T12:23:47.636Z,2360
2016-12-10T12:24:47.812Z,2428
2016-12-10T12:25:47.480Z,2524
2016-12-10T12:26:47.816Z,2672
2016-12-10T12:27:46.829Z,2676
2016-12-10T12:28:47.809Z,2612
2016-12-10T12:29:47.805Z,2696
2016-12-10T12:30:47.473Z,2692
2016-12-10T12:31:47.786Z,2640
2016-12-10T12:32:47.157Z,2604
2016-12-10T12:33:47.134Z,2544
2016-12-10T12:34:47.142Z,2556
2016-12-10T12:35:47.794Z,2468
2016-12-10T12:36:47.790Z,2392
2016-12-10T12:37:47.782Z,2372
2016-12-10T12:38:47.455Z,2432
2016-12-10T12:39:47.774Z,2424
2016-12-10T12:40:47.774Z,2340
2016-12-10T12:41:47.455Z,2240
2016-12-10T12:42:47.767Z,2156
2016-12-10T12:43:47.771Z,2144
2016-12-10T12:44:46.795Z,2076
2016-12-10T12:45:47.767Z,1956
2016-12-10T12:46:47.115Z,1848
2016-12-10T12:47:47.423Z,1836
2016-12-10T12:48:47.756Z,1820
2016-12-10T12:49:47.427Z,1792
2016-12-10T12:50:47.100Z,1752
2016-12-10T12:51:47.416Z,1720
2016-12-10T12:52:47.420Z,1668
2016-12-10T12:53:47.760Z,1628
2016-12-10T12:54:47.733Z,1592
2016-12-10T12:55:47.728Z,1500
2016-12-10T12:56:47.409Z,1464
2016-12-10T12:57:47.073Z,1560
2016-12-10T12:58:47.073Z,1636
2016-12-10T12:59:47.073Z,1596
2016-12-10T13:00:47.729Z,1608
2016-12-10T13:01:47.745Z,1788
2016-12-10T13:02:47.397Z,1844
2016-12-10T13:03:47.742Z,1752
2016-12-10T13:04:47.382Z,1736
2016-12-10T13:05:47.386Z,1732
2016-12-10T13:06:47.094Z,1768
2016-12-10T13:07:47.379Z,1812
2016-12-10T13:08:47.061Z,1808
2016-12-10T13:09:47.383Z,1776
2016-12-10T13:10:47.366Z,1812
2016-12-10T13:11:47.702Z,1876
2016-12-10T13:12:47.042Z,1912
2016-12-10T13:13:47.518Z,1976
2016-12-10T13:14:47.031Z,2000
2016-12-10T13:15:47.355Z,2000
2016-12-10T13:16:47.355Z,2004
2016-12-10T13:17:47.031Z,2064
2016-12-10T13:18:47.027Z,2116
2016-12-10T13:19:47.027Z,2048
2016-12-10T13:20:47.355Z,1936
2016-12-10T13:21:47.351Z,1920
2016-12-10T13:22:47.327Z,1876
2016-12-10T13:23:47.659Z,1788
2016-12-10T13:24:47.335Z,1720
2016-12-10T13:25:47.655Z,1712
2016-12-10T13:26:47.003Z,1652
2016-12-10T13:27:47.004Z,1700
2016-12-10T13:28:46.995Z,1728
2016-12-10T13:29:47.324Z,1736
2016-12-10T13:30:47.643Z,1720
2016-12-10T13:31:47.316Z,1680
2016-12-10T13:32:46.980Z,1580
2016-12-10T13:33:47.635Z,1416
2016-12-10T13:34:47.011Z,1344
2016-12-10T13:35:47.308Z,1380
2016-12-10T13:36:47.352Z,1368
2016-12-10T13:37:46.968Z,1376
2016-12-10T13:38:47.292Z,1332
2016-12-10T13:39:46.652Z,1316
2016-12-10T13:40:47.292Z,1268
2016-12-10T13:41:47.284Z,1236
2016-12-10T13:42:46.952Z,1208
2016-12-10T13:43:46.625Z,1172
2016-12-10T13:44:46.952Z,1172
2016-12-10T13:45:47.273Z,1156
2016-12-10T13:46:46.948Z,1160
2016-12-10T13:47:47.597Z,1056
2016-12-10T13:48:47.589Z,1080
2016-12-10T13:49:47.265Z,1048
2016-12-10T13:50:47.277Z,1064
2016-12-10T13:51:47.265Z,1084
2016-12-10T13:52:47.269Z,1020
2016-12-10T13:53:47.257Z,1024
2016-12-10T13:54:47.585Z,1000
2016-12-10T13:55:47.254Z,952
2016-12-10T13:56:46.917Z,960
2016-12-10T13:57:47.249Z,952
2016-12-10T13:58:47.570Z,952
2016-12-10T13:59:47.561Z,964
2016-12-10T14:00:46.909Z,944
2016-12-10T14:01:46.905Z,912
2016-12-10T14:02:46.905Z,920
2016-12-10T14:03:46.897Z,888